Time;durP1;ratioP1;P1;durP2;ratioP2;P2;SDS_P1;SDS_P2;PMS_P1;PMS_P2;Temp;Humidity;BMP_temperature;BMP_pressure;BME280_temperature;BME280_humidity;BME280_pressure;Samples;Min_cycle;Max_cycle;Signal;HPM_P1;HPM_P2
2023/07/11 00:00:14;;;;;;;20.63;19.27;;;;;;;;;;5100724;28;20441;-88
2023/07/11 00:02:41;;;;;;;21.47;19.90;;;;;;;;;;5102431;28;20422;-87
2023/07/11 00:05:09;;;;;;;21.30;19.37;;;;;;;;;;5102728;28;20427;-89
2023/07/11 00:07:35;;;;;;;20.90;19.60;;;;;;;;;;5102064;28;20491;-87
2023/07/11 00:10:02;;;;;;;20.97;19.80;;;;;;;;;;5102224;28;20918;-89
2023/07/11 00:12:31;;;;;;;20.20;19.00;;;;;;;;;;5102058;28;20431;-88
2023/07/11 00:14:58;;;;;;;20.37;19.07;;;;;;;;;;5101493;28;20461;-89
2023/07/11 00:17:26;;;;;;;22.67;20.87;;;;;;;;;;5101357;28;20519;-88
2023/07/11 00:19:54;;;;;;;20.13;19.00;;;;;;;;;;5098837;28;20442;-88
2023/07/11 00:22:22;;;;;;;21.00;19.90;;;;;;;;;;5102093;28;20422;-87
2023/07/11 00:24:49;;;;;;;20.37;19.17;;;;;;;;;;5101774;28;20494;-88
2023/07/11 00:27:17;;;;;;;20.93;19.73;;;;;;;;;;5101239;28;20487;-87
2023/07/11 00:29:45;;;;;;;21.00;19.83;;;;;;;;;;5101834;28;20461;-88
2023/07/11 00:32:12;;;;;;;21.63;20.40;;;;;;;;;;5103376;28;20449;-89
2023/07/11 00:34:40;;;;;;;20.43;19.03;;;;;;;;;;5117050;28;20436;-88
2023/07/11 00:37:07;;;;;;;20.73;19.50;;;;;;;;;;5120489;28;20453;-89
2023/07/11 00:39:35;;;;;;;20.20;19.00;;;;;;;;;;5116579;28;20491;-90
2023/07/11 00:42:03;;;;;;;20.17;19.07;;;;;;;;;;5106798;28;20470;-90
2023/07/11 00:44:30;;;;;;;20.90;19.43;;;;;;;;;;5101350;28;20445;-89
2023/07/11 00:46:58;;;;;;;21.10;19.50;;;;;;;;;;5100622;28;20445;-89
2023/07/11 00:49:25;;;;;;;20.80;19.50;;;;;;;;;;5100812;28;20982;-89
2023/07/11 00:51:54;;;;;;;21.80;20.37;;;;;;;;;;5100312;28;20843;-89
2023/07/11 00:54:23;;;;;;;19.93;18.90;;;;;;;;;;5100694;28;20457;-89
2023/07/11 00:56:50;;;;;;;20.97;19.60;;;;;;;;;;5098990;28;20443;-89
2023/07/11 00:59:18;;;;;;;21.03;19.60;;;;;;;;;;5097796;28;20540;-89
2023/07/11 01:01:47;;;;;;;21.23;19.87;;;;;;;;;;5097369;28;20472;-89
2023/07/11 01:04:19;;;;;;;20.67;19.27;;;;;;;;;;5098526;28;20449;-89
2023/07/11 01:06:46;;;;;;;20.30;18.90;;;;;;;;;;5099148;28;20428;-88
2023/07/11 01:09:13;;;;;;;20.07;18.80;;;;;;;;;;5099184;28;20494;-89
2023/07/11 01:11:51;;;;;;;20.70;19.50;;;;;;;;;;5098296;28;20902;-90
2023/07/11 01:14:18;;;;;;;20.63;19.33;;;;;;;;;;5098958;28;20512;-88
2023/07/11 01:16:45;;;;;;;20.30;19.00;;;;;;;;;;5098194;28;20501;-89
2023/07/11 01:19:12;;;;;;;20.63;19.23;;;;;;;;;;5098189;28;20428;-89
2023/07/11 01:21:40;;;;;;;20.73;19.40;;;;;;;;;;5097084;28;20837;-89
2023/07/11 01:24:08;;;;;;;20.60;19.43;;;;;;;;;;5097967;28;20412;-89
2023/07/11 01:26:35;;;;;;;20.60;19.30;;;;;;;;;;5097655;28;20424;-89
2023/07/11 01:29:02;;;;;;;20.27;18.90;;;;;;;;;;5097899;28;20428;-89
2023/07/11 01:31:29;;;;;;;20.93;19.70;;;;;;;;;;5098087;28;20848;-89
2023/07/11 01:33:56;;;;;;;21.60;20.10;;;;;;;;;;5098299;28;20904;-89
2023/07/11 01:36:23;;;;;;;20.70;19.50;;;;;;;;;;5097428;28;20530;-88
2023/07/11 01:38:51;;;;;;;20.73;19.63;;;;;;;;;;5095754;28;20840;-89
2023/07/11 01:41:18;;;;;;;20.40;19.30;;;;;;;;;;5095401;28;20455;-89
2023/07/11 01:43:45;;;;;;;21.50;19.97;;;;;;;;;;5095298;28;20484;-89
2023/07/11 01:46:12;;;;;;;20.93;19.80;;;;;;;;;;5093590;28;20449;-89
2023/07/11 01:48:39;;;;;;;21.53;20.10;;;;;;;;;;5095534;28;20435;-88
2023/07/11 01:51:06;;;;;;;21.20;19.87;;;;;;;;;;5095231;28;20456;-89
2023/07/11 01:53:33;;;;;;;20.43;19.30;;;;;;;;;;5095256;28;20457;-88
2023/07/11 01:56:03;;;;;;;20.73;19.37;;;;;;;;;;5094807;28;20464;-89
2023/07/11 01:58:30;;;;;;;20.47;19.17;;;;;;;;;;5095300;28;20481;-88
2023/07/11 02:00:58;;;;;;;20.83;19.63;;;;;;;;;;5095104;28;20514;-89
2023/07/11 02:03:25;;;;;;;20.93;19.70;;;;;;;;;;5094850;28;20809;-88
2023/07/11 02:05:53;;;;;;;21.43;20.20;;;;;;;;;;5093225;28;20445;-89
2023/07/11 02:08:20;;;;;;;21.13;19.93;;;;;;;;;;5093865;28;20813;-88
2023/07/11 02:10:47;;;;;;;21.37;19.97;;;;;;;;;;5094615;28;20477;-88
2023/07/11 02:13:15;;;;;;;21.73;20.43;;;;;;;;;;5095055;28;20423;-89
2023/07/11 02:15:42;;;;;;;20.17;19.07;;;;;;;;;;5094561;28;20528;-88
2023/07/11 02:18:10;;;;;;;23.27;21.30;;;;;;;;;;5094861;28;20444;-88
2023/07/11 02:20:40;;;;;;;21.63;20.20;;;;;;;;;;5093990;28;20512;-88
2023/07/11 02:23:07;;;;;;;21.83;20.63;;;;;;;;;;5094478;28;20472;-88
2023/07/11 02:25:48;;;;;;;21.37;20.27;;;;;;;;;;5093360;28;20465;-89
2023/07/11 02:28:16;;;;;;;22.50;21.00;;;;;;;;;;5094258;28;20500;-89
2023/07/11 02:31:14;;;;;;;21.83;20.23;;;;;;;;;;5093887;28;20435;-89
2023/07/11 02:33:41;;;;;;;22.97;21.40;;;;;;;;;;5094523;28;20452;-89
2023/07/11 02:36:08;;;;;;;21.10;19.80;;;;;;;;;;5096750;28;20459;-88
2023/07/11 02:38:35;;;;;;;21.03;19.77;;;;;;;;;;5094319;28;20823;-88
2023/07/11 02:41:02;;;;;;;22.53;20.73;;;;;;;;;;5094731;28;20522;-87
2023/07/11 02:43:31;;;;;;;21.30;19.90;;;;;;;;;;5094582;28;20494;-89
2023/07/11 02:45:58;;;;;;;21.70;20.50;;;;;;;;;;5093799;28;20469;-87
2023/07/11 02:48:26;;;;;;;22.40;21.00;;;;;;;;;;5092965;28;20469;-88
2023/07/11 02:50:53;;;;;;;21.90;20.60;;;;;;;;;;5094805;28;20447;-88
2023/07/11 02:53:21;;;;;;;21.57;20.27;;;;;;;;;;5094824;28;20457;-89
2023/07/11 02:55:51;;;;;;;22.03;20.67;;;;;;;;;;5093704;28;20831;-88
2023/07/11 02:58:18;;;;;;;22.13;20.90;;;;;;;;;;5093598;28;20469;-88
2023/07/11 03:00:49;;;;;;;22.03;20.73;;;;;;;;;;5094140;28;20453;-88
2023/07/11 03:03:16;;;;;;;21.63;20.13;;;;;;;;;;5094445;28;20509;-88
2023/07/11 03:05:43;;;;;;;21.07;19.93;;;;;;;;;;5093789;28;20426;-88
2023/07/11 03:08:11;;;;;;;22.00;20.70;;;;;;;;;;5092976;28;20416;-88
2023/07/11 03:10:38;;;;;;;23.33;21.50;;;;;;;;;;5093399;28;20453;-87
2023/07/11 03:13:05;;;;;;;21.27;20.00;;;;;;;;;;5094067;28;20553;-88
2023/07/11 03:15:34;;;;;;;20.90;19.77;;;;;;;;;;5093602;28;20921;-88
2023/07/11 03:18:03;;;;;;;20.90;19.80;;;;;;;;;;5093870;28;20480;-88
2023/07/11 03:20:30;;;;;;;21.70;20.40;;;;;;;;;;5094148;28;21277;-88
2023/07/11 03:22:57;;;;;;;21.43;20.23;;;;;;;;;;5093450;28;20875;-88
2023/07/11 03:25:24;;;;;;;21.17;19.87;;;;;;;;;;5093945;28;20461;-88
2023/07/11 03:27:51;;;;;;;21.70;20.50;;;;;;;;;;5093039;28;20490;-88
2023/07/11 03:30:19;;;;;;;22.67;20.83;;;;;;;;;;5092958;28;20882;-89
2023/07/11 03:32:46;;;;;;;22.43;20.70;;;;;;;;;;5097422;28;20909;-88
2023/07/11 03:35:15;;;;;;;22.03;20.73;;;;;;;;;;5097537;28;20437;-89
2023/07/11 03:37:42;;;;;;;21.73;20.50;;;;;;;;;;5096664;28;20451;-88
2023/07/11 03:40:09;;;;;;;21.53;20.33;;;;;;;;;;5097452;28;20462;-88
2023/07/11 03:42:36;;;;;;;21.20;19.80;;;;;;;;;;5097232;28;20468;-85
2023/07/11 03:45:04;;;;;;;21.53;20.10;;;;;;;;;;5096705;28;20899;-85
2023/07/11 03:47:31;;;;;;;20.73;19.37;;;;;;;;;;5096692;28;20444;-85
2023/07/11 03:49:58;;;;;;;21.33;19.87;;;;;;;;;;5091823;28;20488;-84
2023/07/11 03:52:26;;;;;;;20.60;19.30;;;;;;;;;;5095004;28;20412;-84
2023/07/11 03:54:53;;;;;;;20.43;19.23;;;;;;;;;;5097082;28;20956;-84
2023/07/11 03:57:20;;;;;;;21.00;19.63;;;;;;;;;;5097206;28;20526;-84
2023/07/11 03:59:48;;;;;;;20.77;19.57;;;;;;;;;;5097235;28;20441;-84
2023/07/11 04:02:15;;;;;;;21.00;19.40;;;;;;;;;;5096809;28;20458;-84
2023/07/11 04:04:42;;;;;;;21.27;19.67;;;;;;;;;;5097120;28;20408;-84
2023/07/11 04:07:09;;;;;;;21.50;20.10;;;;;;;;;;5096635;28;20416;-84
2023/07/11 04:09:40;;;;;;;20.40;19.10;;;;;;;;;;5095930;28;20919;-84
2023/07/11 04:12:07;;;;;;;20.57;19.37;;;;;;;;;;5096828;28;20435;-84
2023/07/11 04:14:35;;;;;;;20.20;19.10;;;;;;;;;;5097219;28;20445;-84
2023/07/11 04:17:02;;;;;;;21.60;20.10;;;;;;;;;;5096243;28;20484;-84
2023/07/11 04:19:29;;;;;;;21.30;19.90;;;;;;;;;;5096997;28;20788;-84
2023/07/11 04:21:55;;;;;;;20.50;19.40;;;;;;;;;;5097647;28;20493;-84
2023/07/11 04:24:23;;;;;;;21.47;20.10;;;;;;;;;;5097230;28;20416;-84
2023/07/11 04:26:51;;;;;;;20.57;19.30;;;;;;;;;;5096596;28;20457;-84
2023/07/11 04:29:18;;;;;;;21.50;20.00;;;;;;;;;;5096323;28;20476;-84
2023/07/11 04:31:45;;;;;;;21.97;20.57;;;;;;;;;;5095335;28;20489;-84
2023/07/11 04:34:12;;;;;;;21.10;19.63;;;;;;;;;;5096988;28;20427;-84
2023/07/11 04:36:39;;;;;;;20.50;19.30;;;;;;;;;;5096159;28;20455;-83
2023/07/11 04:39:06;;;;;;;21.70;20.40;;;;;;;;;;5096853;28;20952;-84
2023/07/11 04:41:33;;;;;;;20.73;19.40;;;;;;;;;;5096015;28;20983;-84
2023/07/11 04:44:01;;;;;;;20.90;19.70;;;;;;;;;;5097192;28;20450;-84
2023/07/11 04:46:28;;;;;;;21.57;20.30;;;;;;;;;;5096250;28;20419;-84
2023/07/11 04:48:55;;;;;;;22.30;20.80;;;;;;;;;;5096777;28;20444;-84
2023/07/11 04:51:22;;;;;;;21.67;20.10;;;;;;;;;;5095041;28;20464;-85
2023/07/11 04:53:49;;;;;;;21.37;20.10;;;;;;;;;;5096487;28;20436;-84
2023/07/11 04:56:16;;;;;;;21.23;20.03;;;;;;;;;;5096110;28;20427;-84
2023/07/11 04:58:43;;;;;;;21.77;20.43;;;;;;;;;;5095624;28;21010;-84
2023/07/11 05:01:12;;;;;;;21.20;19.80;;;;;;;;;;5096197;28;20435;-84
2023/07/11 05:03:40;;;;;;;21.63;20.30;;;;;;;;;;5096381;28;20560;-84
2023/07/11 05:06:08;;;;;;;21.50;20.20;;;;;;;;;;5095930;28;20469;-83
2023/07/11 05:08:35;;;;;;;20.97;19.70;;;;;;;;;;5096465;28;20453;-84
2023/07/11 05:11:03;;;;;;;21.30;20.00;;;;;;;;;;5094802;28;20467;-83
2023/07/11 05:13:30;;;;;;;20.97;19.57;;;;;;;;;;5095832;28;20431;-83
2023/07/11 05:16:01;;;;;;;21.57;20.23;;;;;;;;;;5093519;28;20461;-83
2023/07/11 05:18:29;;;;;;;22.17;20.80;;;;;;;;;;5095753;28;20473;-83
2023/07/11 05:20:57;;;;;;;21.93;20.10;;;;;;;;;;5095978;28;21000;-83
2023/07/11 05:23:24;;;;;;;21.57;20.20;;;;;;;;;;5095630;28;20424;-83
2023/07/11 05:25:52;;;;;;;22.23;20.77;;;;;;;;;;5094453;28;20472;-83
2023/07/11 05:28:19;;;;;;;21.70;20.40;;;;;;;;;;5095706;28;20487;-83
2023/07/11 05:30:46;;;;;;;21.63;20.23;;;;;;;;;;5095037;28;20566;-84
2023/07/11 05:33:13;;;;;;;22.37;20.97;;;;;;;;;;5095781;28;20833;-83
2023/07/11 05:35:47;;;;;;;21.93;20.53;;;;;;;;;;5093781;28;20465;-83
2023/07/11 05:38:15;;;;;;;21.60;20.10;;;;;;;;;;5094800;28;20480;-83
2023/07/11 05:40:42;;;;;;;21.50;20.10;;;;;;;;;;5095971;28;20442;-84
2023/07/11 05:43:09;;;;;;;20.87;19.47;;;;;;;;;;5101642;28;20487;-83
2023/07/11 05:45:36;;;;;;;21.10;19.70;;;;;;;;;;5116052;28;20465;-83
2023/07/11 05:48:03;;;;;;;20.43;19.13;;;;;;;;;;5117601;28;20407;-83
2023/07/11 05:50:30;;;;;;;21.23;19.83;;;;;;;;;;5115461;28;20456;-84
2023/07/11 05:52:59;;;;;;;21.23;19.83;;;;;;;;;;5100432;28;20408;-84
2023/07/11 05:55:26;;;;;;;21.40;19.80;;;;;;;;;;5100096;28;20420;-84
2023/07/11 05:57:53;;;;;;;21.23;19.83;;;;;;;;;;5099673;28;20451;-84
2023/07/11 06:00:20;;;;;;;21.40;19.97;;;;;;;;;;5099815;28;20473;-84
2023/07/11 06:02:47;;;;;;;21.97;20.57;;;;;;;;;;5099583;28;20436;-84
2023/07/11 06:05:14;;;;;;;21.77;20.30;;;;;;;;;;5098813;28;20488;-84
2023/07/11 06:07:41;;;;;;;22.40;21.00;;;;;;;;;;5097121;28;20492;-84
2023/07/11 06:10:10;;;;;;;21.77;20.37;;;;;;;;;;5098729;28;20429;-84
2023/07/11 06:12:37;;;;;;;23.63;21.93;;;;;;;;;;5098684;28;20468;-84
2023/07/11 06:15:04;;;;;;;22.10;20.80;;;;;;;;;;5098464;28;20465;-85
2023/07/11 06:17:31;;;;;;;22.67;21.10;;;;;;;;;;5097438;28;20502;-83
2023/07/11 06:19:59;;;;;;;22.70;21.27;;;;;;;;;;5098172;28;20430;-83
2023/07/11 06:22:26;;;;;;;22.40;20.70;;;;;;;;;;5096917;28;20969;-84
2023/07/11 06:24:53;;;;;;;22.27;20.77;;;;;;;;;;5096908;28;20864;-84
2023/07/11 06:27:21;;;;;;;22.10;20.80;;;;;;;;;;5096343;28;20419;-84
2023/07/11 06:29:48;;;;;;;22.47;21.07;;;;;;;;;;5096984;28;20415;-85
2023/07/11 06:32:15;;;;;;;21.97;20.57;;;;;;;;;;5096577;28;20517;-85
2023/07/11 06:34:42;;;;;;;21.90;20.60;;;;;;;;;;5096922;28;20416;-85
2023/07/11 06:37:11;;;;;;;22.83;21.33;;;;;;;;;;5095321;28;20456;-84
2023/07/11 06:39:38;;;;;;;22.53;20.93;;;;;;;;;;5096057;28;20476;-85
2023/07/11 06:42:05;;;;;;;22.07;20.27;;;;;;;;;;5095415;28;20459;-85
2023/07/11 06:44:35;;;;;;;22.27;20.83;;;;;;;;;;5095773;28;20431;-85
2023/07/11 06:47:02;;;;;;;22.27;20.77;;;;;;;;;;5095358;28;20419;-86
2023/07/11 06:49:29;;;;;;;23.03;21.53;;;;;;;;;;5094954;28;20830;-82
2023/07/11 06:51:56;;;;;;;23.13;21.63;;;;;;;;;;5094834;28;20447;-85
2023/07/11 06:54:23;;;;;;;23.47;21.67;;;;;;;;;;5094736;28;20476;-86
2023/07/11 06:56:50;;;;;;;22.13;20.70;;;;;;;;;;5094268;28;20423;-85
2023/07/11 06:59:20;;;;;;;22.37;20.97;;;;;;;;;;5095036;28;20431;-83
2023/07/11 07:01:48;;;;;;;23.07;21.50;;;;;;;;;;5092624;28;20465;-84
2023/07/11 07:04:15;;;;;;;22.63;21.20;;;;;;;;;;5095196;28;20824;-83
2023/07/11 07:06:42;;;;;;;23.37;21.77;;;;;;;;;;5099564;28;20888;-84
2023/07/11 07:09:10;;;;;;;22.70;21.20;;;;;;;;;;5100484;28;20504;-83
2023/07/11 07:11:37;;;;;;;22.50;21.10;;;;;;;;;;5098711;28;20488;-84
2023/07/11 07:14:04;;;;;;;23.60;21.90;;;;;;;;;;5098822;28;20498;-83
2023/07/11 07:16:32;;;;;;;22.50;21.10;;;;;;;;;;5097385;28;20432;-85
2023/07/11 07:19:00;;;;;;;22.97;21.37;;;;;;;;;;5099403;28;20462;-85
2023/07/11 07:21:27;;;;;;;22.60;21.20;;;;;;;;;;5099356;28;20520;-85
2023/07/11 07:23:54;;;;;;;23.00;21.50;;;;;;;;;;5098872;28;20427;-85
2023/07/11 07:26:21;;;;;;;22.50;21.10;;;;;;;;;;5098906;28;20480;-84
2023/07/11 07:28:48;;;;;;;23.17;21.60;;;;;;;;;;5100267;28;20900;-85
2023/07/11 07:31:15;;;;;;;22.50;21.00;;;;;;;;;;5098291;28;20463;-84
2023/07/11 07:33:42;;;;;;;23.60;22.10;;;;;;;;;;5098789;28;20480;-83
2023/07/11 07:36:12;;;;;;;22.73;21.20;;;;;;;;;;5098377;28;20449;-83
2023/07/11 07:38:39;;;;;;;23.17;21.77;;;;;;;;;;5099069;28;20476;-83
2023/07/11 07:41:08;;;;;;;23.37;21.90;;;;;;;;;;5097800;28;20504;-83
2023/07/11 07:43:36;;;;;;;24.10;22.60;;;;;;;;;;5099154;28;20478;-83
2023/07/11 07:46:04;;;;;;;22.90;21.60;;;;;;;;;;5097335;28;20445;-84
2023/07/11 07:48:31;;;;;;;23.90;22.43;;;;;;;;;;5098071;28;20917;-83
2023/07/11 07:51:03;;;;;;;23.57;22.17;;;;;;;;;;5097969;28;20448;-81
2023/07/11 07:53:31;;;;;;;23.20;21.70;;;;;;;;;;5098264;28;20451;-83
2023/07/11 07:56:03;;;;;;;23.10;21.70;;;;;;;;;;5095284;28;20776;-82
2023/07/11 07:58:30;;;;;;;25.10;23.50;;;;;;;;;;5097797;28;20868;-83
2023/07/11 08:00:57;;;;;;;24.20;22.80;;;;;;;;;;5097981;28;20443;-83
2023/07/11 08:03:24;;;;;;;24.37;22.97;;;;;;;;;;5097690;28;20502;-81
2023/07/11 08:05:51;;;;;;;24.63;23.00;;;;;;;;;;5097366;28;20420;-83
2023/07/11 08:08:18;;;;;;;24.30;22.60;;;;;;;;;;5096353;28;20856;-84
2023/07/11 08:10:46;;;;;;;23.80;22.33;;;;;;;;;;5096166;28;21022;-84
2023/07/11 08:13:13;;;;;;;24.03;22.40;;;;;;;;;;5096580;28;20465;-82
2023/07/11 08:15:42;;;;;;;23.90;22.50;;;;;;;;;;5096128;28;20449;-83
2023/07/11 08:18:09;;;;;;;24.93;23.33;;;;;;;;;;5100055;28;20476;-84
2023/07/11 08:20:36;;;;;;;23.80;22.23;;;;;;;;;;5109915;28;20500;-85
2023/07/11 08:23:03;;;;;;;24.20;22.30;;;;;;;;;;5105465;28;20431;-80
2023/07/11 08:25:30;;;;;;;24.07;22.67;;;;;;;;;;5095530;28;20920;-81
2023/07/11 08:27:58;;;;;;;23.23;21.70;;;;;;;;;;5096001;28;20427;-82
2023/07/11 08:30:25;;;;;;;24.17;22.67;;;;;;;;;;5094434;28;20466;-83
2023/07/11 08:32:52;;;;;;;24.07;22.30;;;;;;;;;;5095970;28;20460;-83
2023/07/11 08:35:19;;;;;;;24.03;22.53;;;;;;;;;;5096105;28;20489;-85
2023/07/11 08:37:46;;;;;;;23.63;22.23;;;;;;;;;;5094902;28;20443;-83
2023/07/11 08:40:18;;;;;;;25.20;23.27;;;;;;;;;;5095887;28;20441;-79
2023/07/11 08:42:45;;;;;;;25.00;23.20;;;;;;;;;;5095821;28;20514;-80
2023/07/11 08:45:17;;;;;;;24.47;22.90;;;;;;;;;;5095927;28;20427;-80
2023/07/11 08:47:49;;;;;;;24.40;22.90;;;;;;;;;;5094763;28;20423;-81
2023/07/11 08:50:23;;;;;;;25.00;23.50;;;;;;;;;;5095951;28;20584;-85
2023/07/11 08:52:53;;;;;;;25.33;23.37;;;;;;;;;;5096833;28;20437;-85
2023/07/11 08:55:24;;;;;;;24.70;23.20;;;;;;;;;;5097226;28;20482;-86
2023/07/11 08:57:55;;;;;;;24.53;22.93;;;;;;;;;;5096497;28;20497;-86
2023/07/11 09:00:25;;;;;;;24.30;22.90;;;;;;;;;;5095919;28;20443;-81
2023/07/11 09:02:55;;;;;;;23.80;22.33;;;;;;;;;;5095586;28;20381;-80
2023/07/11 09:05:30;;;;;;;24.67;23.10;;;;;;;;;;5094521;28;20404;-80
2023/07/11 09:07:58;;;;;;;23.33;21.83;;;;;;;;;;5095354;28;20783;-79
2023/07/11 09:10:33;;;;;;;25.50;23.70;;;;;;;;;;5096187;28;20556;-85
2023/07/11 09:13:04;;;;;;;24.90;23.30;;;;;;;;;;5097588;28;20440;-87
2023/07/11 09:15:40;;;;;;;24.50;23.00;;;;;;;;;;5096680;28;20420;-87
2023/07/11 09:18:17;;;;;;;24.77;23.27;;;;;;;;;;5096802;28;20496;-87
2023/07/11 09:20:46;;;;;;;24.30;22.70;;;;;;;;;;5096907;28;20850;-86
2023/07/11 09:23:20;;;;;;;24.27;22.57;;;;;;;;;;5096378;28;20959;-86
2023/07/11 09:25:48;;;;;;;24.23;22.73;;;;;;;;;;5096775;28;20451;-88
2023/07/11 09:28:16;;;;;;;26.20;24.40;;;;;;;;;;5097292;28;20518;-87
2023/07/11 09:30:48;;;;;;;25.53;23.83;;;;;;;;;;5095820;28;20452;-83
2023/07/11 09:33:17;;;;;;;29.67;26.90;;;;;;;;;;5096538;28;21200;-84
2023/07/11 09:35:45;;;;;;;28.73;26.43;;;;;;;;;;5095123;28;20500;-84
2023/07/11 09:38:15;;;;;;;25.17;23.57;;;;;;;;;;5095064;28;20884;-85
2023/07/11 09:40:46;;;;;;;24.50;22.80;;;;;;;;;;5095245;28;20880;-84
2023/07/11 09:43:13;;;;;;;24.47;22.80;;;;;;;;;;5094848;28;20455;-83
2023/07/11 09:45:42;;;;;;;24.67;23.07;;;;;;;;;;5094050;28;20425;-84
2023/07/11 09:48:12;;;;;;;25.33;23.53;;;;;;;;;;5094516;28;20407;-84
2023/07/11 09:50:46;;;;;;;27.43;25.07;;;;;;;;;;5094098;28;20455;-84
2023/07/11 09:53:15;;;;;;;32.87;30.13;;;;;;;;;;5094197;28;20424;-85
2023/07/11 09:55:42;;;;;;;25.90;24.10;;;;;;;;;;5093524;28;20485;-83
2023/07/11 09:58:13;;;;;;;25.17;23.37;;;;;;;;;;5094191;28;21052;-83
2023/07/11 10:00:44;;;;;;;26.73;25.03;;;;;;;;;;5094301;28;20942;-83
2023/07/11 10:03:17;;;;;;;26.70;25.00;;;;;;;;;;5093952;28;20442;-86
2023/07/11 10:05:45;;;;;;;26.30;24.60;;;;;;;;;;5092477;28;20432;-84
2023/07/11 10:08:15;;;;;;;33.70;31.30;;;;;;;;;;5093061;28;20453;-83
2023/07/11 10:10:45;;;;;;;26.53;24.83;;;;;;;;;;5095984;28;20487;-81
2023/07/11 10:13:13;;;;;;;25.40;23.70;;;;;;;;;;5096162;28;20814;-84
2023/07/11 10:27:17;;;;;;;26.27;24.50;;;;;;;;;;5170294;27;20939;-84
2023/07/11 10:29:46;;;;;;;25.10;23.60;;;;;;;;;;5153870;27;20437;-84
2023/07/11 10:32:17;;;;;;;27.30;25.33;;;;;;;;;;5153854;27;20462;-83
2023/07/11 10:34:47;;;;;;;28.17;26.13;;;;;;;;;;5153176;27;20986;-82
2023/07/11 10:37:17;;;;;;;26.20;24.50;;;;;;;;;;5152679;27;20415;-83
2023/07/11 10:39:48;;;;;;;27.43;25.73;;;;;;;;;;5152858;27;20505;-85
2023/07/11 10:42:24;;;;;;;27.70;26.00;;;;;;;;;;5153276;27;20450;-80
2023/07/11 10:44:53;;;;;;;26.80;25.20;;;;;;;;;;5153903;27;20405;-82
2023/07/11 10:47:26;;;;;;;27.30;25.60;;;;;;;;;;5152737;27;20507;-83
2023/07/11 10:49:54;;;;;;;27.43;25.73;;;;;;;;;;5153702;27;20429;-83
2023/07/11 10:52:23;;;;;;;28.30;26.40;;;;;;;;;;5153561;27;20446;-87
2023/07/11 10:54:54;;;;;;;26.97;25.30;;;;;;;;;;5170178;27;20461;-85
2023/07/11 10:57:36;;;;;;;26.53;24.83;;;;;;;;;;5173979;27;20936;-84
2023/07/11 11:00:06;;;;;;;27.40;25.70;;;;;;;;;;5174834;27;20507;-86
2023/07/11 11:02:38;;;;;;;27.20;25.50;;;;;;;;;;5174528;27;20445;-87
2023/07/11 11:05:10;;;;;;;26.23;24.53;;;;;;;;;;5175146;27;20426;-86
2023/07/11 11:07:40;;;;;;;27.60;25.90;;;;;;;;;;5173589;27;20962;-86
2023/07/11 11:10:12;;;;;;;26.60;24.90;;;;;;;;;;5175223;27;20436;-86
2023/07/11 11:12:42;;;;;;;26.97;25.17;;;;;;;;;;5174353;27;20396;-88
2023/07/11 11:15:20;;;;;;;27.57;25.73;;;;;;;;;;5177097;27;20454;-87
2023/07/11 11:17:53;;;;;;;28.30;26.60;;;;;;;;;;5174824;27;20434;-86
2023/07/11 11:20:26;;;;;;;26.93;25.07;;;;;;;;;;5172925;27;20437;-81
2023/07/11 11:23:00;;;;;;;26.80;25.10;;;;;;;;;;5172445;27;20446;-81
2023/07/11 11:25:28;;;;;;;27.23;25.50;;;;;;;;;;5171362;27;20443;-82
2023/07/11 11:28:02;;;;;;;26.60;24.80;;;;;;;;;;5160151;27;20431;-80
2023/07/11 11:30:34;;;;;;;25.90;24.20;;;;;;;;;;5158555;27;20497;-80
2023/07/11 11:33:04;;;;;;;27.13;25.43;;;;;;;;;;5157814;27;20414;-81
2023/07/11 11:35:34;;;;;;;24.83;23.23;;;;;;;;;;5157697;27;20556;-80
2023/07/11 11:38:14;;;;;;;25.47;23.57;;;;;;;;;;5157735;27;20409;-79
2023/07/11 11:40:42;;;;;;;26.67;24.10;;;;;;;;;;5157427;27;20440;-80
2023/07/11 11:43:13;;;;;;;26.27;24.37;;;;;;;;;;5158066;27;20469;-80
2023/07/11 11:45:41;;;;;;;25.87;24.07;;;;;;;;;;5156445;27;20467;-80
2023/07/11 11:48:15;;;;;;;25.20;23.60;;;;;;;;;;5157502;27;20435;-82
2023/07/11 11:50:42;;;;;;;26.70;24.90;;;;;;;;;;5157636;27;20461;-84
2023/07/11 11:53:22;;;;;;;25.93;24.13;;;;;;;;;;5157495;27;20446;-81
2023/07/11 11:55:53;;;;;;;27.73;25.33;;;;;;;;;;5157720;27;20477;-80
2023/07/11 11:58:21;;;;;;;26.67;24.97;;;;;;;;;;5156591;27;20429;-81
2023/07/11 12:00:50;;;;;;;26.80;25.00;;;;;;;;;;5157477;27;20458;-81
2023/07/11 12:03:26;;;;;;;26.30;24.50;;;;;;;;;;5156930;27;20669;-80
2023/07/11 12:05:54;;;;;;;25.30;23.60;;;;;;;;;;5157046;27;20401;-79
2023/07/11 12:08:29;;;;;;;25.50;23.80;;;;;;;;;;5157594;27;20486;-80
2023/07/11 12:11:04;;;;;;;26.40;24.50;;;;;;;;;;5157313;27;20470;-81
2023/07/11 12:13:32;;;;;;;25.90;24.10;;;;;;;;;;5156919;27;20429;-80
2023/07/11 12:16:02;;;;;;;25.73;23.93;;;;;;;;;;5156423;27;20477;-81
2023/07/11 12:18:41;;;;;;;26.00;24.20;;;;;;;;;;5157154;27;20465;-81
2023/07/11 12:21:32;;;;;;;26.20;24.30;;;;;;;;;;5157339;27;20502;-81
2023/07/11 12:24:29;;;;;;;25.43;23.60;;;;;;;;;;5137046;27;20442;-81
2023/07/11 12:26:56;;;;;;;26.80;24.70;;;;;;;;;;5072247;28;20481;-86
2023/07/11 12:29:37;;;;;;;25.63;23.93;;;;;;;;;;5139493;27;20505;-86
2023/07/11 12:32:23;;;;;;;26.87;24.80;;;;;;;;;;5159679;27;20438;-88
2023/07/11 12:34:55;;;;;;;26.20;24.30;;;;;;;;;;5157430;27;20433;-81
2023/07/11 12:37:24;;;;;;;25.67;23.97;;;;;;;;;;5155978;27;20456;-85
2023/07/11 12:39:55;;;;;;;26.17;24.17;;;;;;;;;;5157303;27;20463;-85
2023/07/11 12:42:31;;;;;;;26.13;24.23;;;;;;;;;;5157648;27;20431;-81
2023/07/11 12:45:00;;;;;;;25.80;24.10;;;;;;;;;;5157116;27;20424;-85
2023/07/11 12:47:27;;;;;;;25.10;23.33;;;;;;;;;;5158663;27;20430;-86
2023/07/11 12:49:55;;;;;;;25.80;23.83;;;;;;;;;;5158191;27;20474;-86
2023/07/11 12:52:24;;;;;;;26.67;24.47;;;;;;;;;;5158268;27;20837;-84
2023/07/11 12:54:51;;;;;;;24.60;22.97;;;;;;;;;;5158295;27;20462;-82
2023/07/11 12:57:20;;;;;;;25.10;23.30;;;;;;;;;;5159091;27;20533;-90
2023/07/11 12:59:47;;;;;;;24.80;23.20;;;;;;;;;;5159074;27;20459;-89
2023/07/11 13:02:19;;;;;;;25.23;23.43;;;;;;;;;;5161041;27;20409;-89
2023/07/11 13:04:48;;;;;;;25.67;23.87;;;;;;;;;;5158752;27;20474;-84
2023/07/11 13:07:16;;;;;;;26.90;24.80;;;;;;;;;;5158489;27;20521;-84
2023/07/11 13:09:46;;;;;;;25.20;23.60;;;;;;;;;;5157208;27;20449;-84
2023/07/11 13:12:17;;;;;;;25.80;23.80;;;;;;;;;;5157838;27;20400;-82
2023/07/11 13:14:44;;;;;;;26.43;24.53;;;;;;;;;;5156470;27;20499;-82
2023/07/11 13:17:13;;;;;;;26.10;24.17;;;;;;;;;;5155405;27;20457;-81
2023/07/11 13:19:42;;;;;;;26.23;24.33;;;;;;;;;;5157400;27;20491;-82
2023/07/11 13:22:12;;;;;;;26.00;24.10;;;;;;;;;;5157185;27;20443;-85
2023/07/11 13:24:39;;;;;;;26.47;24.30;;;;;;;;;;5158092;27;20484;-82
2023/07/11 13:27:07;;;;;;;26.13;24.00;;;;;;;;;;5157658;27;20425;-82
2023/07/11 13:29:37;;;;;;;26.40;24.50;;;;;;;;;;5157420;27;20449;-82
2023/07/11 13:32:06;;;;;;;25.80;24.00;;;;;;;;;;5156671;27;20461;-83
2023/07/11 13:34:34;;;;;;;26.83;24.50;;;;;;;;;;5157765;27;20450;-83
2023/07/11 13:37:02;;;;;;;26.77;24.90;;;;;;;;;;5158593;27;20530;-81
2023/07/11 13:39:33;;;;;;;26.40;24.40;;;;;;;;;;5160503;27;20445;-82
2023/07/11 13:42:03;;;;;;;26.03;24.07;;;;;;;;;;5160219;27;20461;-84
2023/07/11 13:44:32;;;;;;;26.37;24.57;;;;;;;;;;5158083;27;20992;-83
2023/07/11 13:47:01;;;;;;;26.73;24.47;;;;;;;;;;5168346;27;20975;-82
2023/07/11 13:49:35;;;;;;;26.67;24.90;;;;;;;;;;5168849;27;20445;-80
2023/07/11 13:52:04;;;;;;;26.93;24.90;;;;;;;;;;5174823;27;20477;-82
2023/07/11 13:54:32;;;;;;;27.43;25.53;;;;;;;;;;5176130;27;20413;-82
2023/07/11 13:57:00;;;;;;;26.63;24.63;;;;;;;;;;5176110;27;20466;-81
2023/07/11 13:59:27;;;;;;;26.77;25.07;;;;;;;;;;5171946;27;20471;-82
2023/07/11 14:01:54;;;;;;;27.87;25.77;;;;;;;;;;5161262;27;20450;-83
2023/07/11 14:04:23;;;;;;;26.90;25.07;;;;;;;;;;5158639;27;20897;-82
2023/07/11 14:06:50;;;;;;;28.03;26.00;;;;;;;;;;5155812;27;20440;-83
2023/07/11 14:09:18;;;;;;;26.80;25.00;;;;;;;;;;5157772;27;20460;-83
2023/07/11 14:11:46;;;;;;;27.00;25.00;;;;;;;;;;5157346;27;20409;-83
2023/07/11 14:14:13;;;;;;;26.70;24.80;;;;;;;;;;5157730;27;20776;-83
2023/07/11 14:16:41;;;;;;;27.40;25.33;;;;;;;;;;5155051;27;20588;-82
2023/07/11 14:19:25;;;;;;;25.63;23.93;;;;;;;;;;5156438;27;20483;-79
2023/07/11 14:21:53;;;;;;;26.27;24.57;;;;;;;;;;5157402;27;20448;-83
2023/07/11 14:24:21;;;;;;;26.57;24.67;;;;;;;;;;5158614;27;20458;-83
2023/07/11 14:26:48;;;;;;;27.13;25.27;;;;;;;;;;5156030;27;20527;-83
2023/07/11 14:29:18;;;;;;;26.50;24.57;;;;;;;;;;5156613;27;20389;-85
2023/07/11 14:31:45;;;;;;;27.03;25.00;;;;;;;;;;5157479;27;20809;-82
2023/07/11 14:34:18;;;;;;;26.67;24.77;;;;;;;;;;5156569;27;20474;-79
2023/07/11 14:36:45;;;;;;;28.13;26.00;;;;;;;;;;5155352;27;20785;-81